Time;durP1;ratioP1;P1;durP2;ratioP2;P2;SDS_P1;SDS_P2;PMS_P1;PMS_P2;Temp;Humidity;BMP_temperature;BMP_pressure;BME280_temperature;BME280_humidity;BME280_pressure;Samples;Min_cycle;Max_cycle;Signal;HPM_P1;HPM_P2
2023/09/10 00:02:11;;;;;;;10.80;9.50;;;;;;;;;;5070617;28;42190;-74
2023/09/10 00:04:39;;;;;;;9.93;8.88;;;;;;;;;;5069058;28;40893;-74
2023/09/10 00:07:07;;;;;;;9.80;8.88;;;;;;;;;;5069964;28;42500;-75
2023/09/10 00:09:38;;;;;;;9.63;8.63;;;;;;;;;;5069391;28;39935;-74
2023/09/10 00:12:07;;;;;;;10.50;9.57;;;;;;;;;;5065917;28;42503;-75
2023/09/10 00:14:35;;;;;;;10.52;9.52;;;;;;;;;;5069483;28;42764;-74
2023/09/10 00:17:03;;;;;;;11.63;9.82;;;;;;;;;;5069357;28;40424;-74
2023/09/10 00:19:31;;;;;;;11.63;10.60;;;;;;;;;;5068622;28;41912;-74
2023/09/10 00:22:00;;;;;;;10.15;9.25;;;;;;;;;;5069085;28;41729;-74
2023/09/10 00:24:28;;;;;;;11.27;9.65;;;;;;;;;;5068364;28;42326;-74
2023/09/10 00:26:57;;;;;;;10.38;9.48;;;;;;;;;;5068319;28;40967;-74
2023/09/10 00:29:25;;;;;;;10.77;9.77;;;;;;;;;;5069429;28;43060;-74
2023/09/10 00:31:53;;;;;;;10.70;9.60;;;;;;;;;;5068033;28;41073;-75
2023/09/10 00:34:21;;;;;;;10.05;9.02;;;;;;;;;;5068412;28;41291;-74
2023/09/10 00:36:49;;;;;;;10.23;9.32;;;;;;;;;;5067923;28;38924;-74
2023/09/10 00:39:19;;;;;;;10.55;9.50;;;;;;;;;;5067952;28;41533;-74
2023/09/10 00:41:47;;;;;;;10.32;9.32;;;;;;;;;;5069328;28;41909;-74
2023/09/10 00:44:17;;;;;;;9.60;8.70;;;;;;;;;;5069345;28;40450;-74
2023/09/10 00:46:45;;;;;;;9.02;8.23;;;;;;;;;;5067128;28;42355;-74
2023/09/10 00:49:13;;;;;;;9.88;8.98;;;;;;;;;;5069456;28;42127;-74
2023/09/10 00:51:41;;;;;;;10.07;9.18;;;;;;;;;;5069396;28;40454;-73
2023/09/10 00:54:09;;;;;;;9.25;8.32;;;;;;;;;;5067229;28;42876;-74
2023/09/10 00:56:37;;;;;;;10.48;9.32;;;;;;;;;;5068245;28;39073;-74
2023/09/10 00:59:05;;;;;;;10.82;9.77;;;;;;;;;;5069442;28;42133;-74
2023/09/10 01:01:35;;;;;;;10.38;8.65;;;;;;;;;;5068255;28;43572;-73
2023/09/10 01:04:03;;;;;;;10.15;9.13;;;;;;;;;;5069989;28;40462;-74
2023/09/10 01:06:31;;;;;;;10.02;9.13;;;;;;;;;;5068612;28;41697;-74
2023/09/10 01:08:59;;;;;;;9.27;8.48;;;;;;;;;;5068224;28;42596;-74
2023/09/10 01:11:28;;;;;;;9.38;8.48;;;;;;;;;;5069357;28;40611;-74
2023/09/10 01:13:58;;;;;;;9.27;8.38;;;;;;;;;;5068853;28;41428;-74
2023/09/10 01:16:29;;;;;;;8.60;7.90;;;;;;;;;;5067394;28;41394;-74
2023/09/10 01:18:59;;;;;;;8.90;8.00;;;;;;;;;;5065188;28;42453;-74
2023/09/10 01:21:33;;;;;;;9.52;8.40;;;;;;;;;;5055652;28;42124;-74
2023/09/10 01:24:05;;;;;;;9.27;8.48;;;;;;;;;;5064160;28;41053;-74
2023/09/10 01:26:34;;;;;;;8.73;8.00;;;;;;;;;;5061661;28;42400;-74
2023/09/10 01:29:04;;;;;;;9.07;7.88;;;;;;;;;;5065501;28;42113;-74
2023/09/10 01:31:33;;;;;;;8.80;7.95;;;;;;;;;;5067137;28;40036;-74
2023/09/10 01:34:01;;;;;;;10.13;8.30;;;;;;;;;;5069412;28;41480;-74
2023/09/10 01:36:31;;;;;;;8.57;7.75;;;;;;;;;;5060732;28;40178;-74
2023/09/10 01:39:01;;;;;;;8.32;7.53;;;;;;;;;;5068489;28;42613;-74
2023/09/10 01:41:29;;;;;;;9.02;8.13;;;;;;;;;;5065715;28;42029;-74
2023/09/10 01:43:58;;;;;;;8.70;7.78;;;;;;;;;;5066699;28;38828;-74
2023/09/10 01:46:26;;;;;;;9.45;8.05;;;;;;;;;;5064733;28;42211;-74
2023/09/10 01:48:55;;;;;;;9.25;7.78;;;;;;;;;;5067651;28;42526;-74
2023/09/10 01:51:23;;;;;;;9.38;8.52;;;;;;;;;;5068485;28;40521;-74
2023/09/10 01:53:51;;;;;;;8.50;7.68;;;;;;;;;;5068239;28;42197;-74
2023/09/10 01:56:20;;;;;;;8.93;8.13;;;;;;;;;;5068377;28;42116;-74
2023/09/10 01:58:48;;;;;;;8.68;7.78;;;;;;;;;;5067036;28;40973;-74
2023/09/10 02:01:17;;;;;;;8.88;8.18;;;;;;;;;;5067052;28;40721;-74
2023/09/10 02:03:45;;;;;;;8.18;7.47;;;;;;;;;;5067637;28;40940;-74
2023/09/10 02:06:14;;;;;;;10.40;7.70;;;;;;;;;;5067029;28;42179;-74
2023/09/10 02:08:42;;;;;;;8.57;7.80;;;;;;;;;;5067083;28;41103;-74
2023/09/10 02:11:10;;;;;;;9.00;8.10;;;;;;;;;;5067988;28;41221;-74
2023/09/10 02:13:38;;;;;;;11.95;7.60;;;;;;;;;;5066800;28;40098;-74
2023/09/10 02:16:06;;;;;;;8.18;7.47;;;;;;;;;;5067647;28;40557;-74
2023/09/10 02:18:36;;;;;;;9.05;8.15;;;;;;;;;;5066021;28;38978;-74
2023/09/10 02:21:08;;;;;;;8.63;7.82;;;;;;;;;;5067223;28;41471;-74
2023/09/10 02:23:37;;;;;;;8.48;7.68;;;;;;;;;;5066824;28;40054;-74
2023/09/10 02:26:05;;;;;;;9.50;7.78;;;;;;;;;;5067061;28;41654;-74
2023/09/10 02:28:33;;;;;;;8.57;7.85;;;;;;;;;;5067610;28;43156;-74
2023/09/10 02:31:04;;;;;;;8.23;7.38;;;;;;;;;;5067420;28;41077;-74
2023/09/10 02:33:32;;;;;;;8.70;7.82;;;;;;;;;;5066772;28;40528;-74
2023/09/10 02:36:01;;;;;;;8.70;7.70;;;;;;;;;;5070309;28;43091;-74
2023/09/10 02:38:30;;;;;;;9.13;8.20;;;;;;;;;;5069803;28;38775;-74
2023/09/10 02:40:58;;;;;;;8.18;7.38;;;;;;;;;;5072161;28;42360;-74
2023/09/10 02:43:26;;;;;;;8.30;7.60;;;;;;;;;;5070645;28;39279;-74
2023/09/10 02:45:54;;;;;;;8.55;7.75;;;;;;;;;;5070769;28;41573;-74
2023/09/10 02:48:23;;;;;;;8.77;7.90;;;;;;;;;;5069142;28;41398;-74
2023/09/10 02:50:53;;;;;;;8.93;8.00;;;;;;;;;;5071110;28;40464;-74
2023/09/10 02:53:23;;;;;;;9.23;8.32;;;;;;;;;;5070589;28;41585;-74
2023/09/10 02:55:58;;;;;;;9.65;8.38;;;;;;;;;;5069887;28;40541;-74
2023/09/10 02:58:26;;;;;;;8.88;8.07;;;;;;;;;;5054444;28;40934;-74
2023/09/10 03:00:54;;;;;;;10.05;8.43;;;;;;;;;;5069181;28;41250;-74
2023/09/10 03:03:22;;;;;;;9.00;8.20;;;;;;;;;;5071438;28;42227;-74
2023/09/10 03:05:51;;;;;;;8.88;7.97;;;;;;;;;;5070426;28;39960;-74
2023/09/10 03:08:19;;;;;;;9.75;8.80;;;;;;;;;;5069372;28;40772;-74
2023/09/10 03:10:48;;;;;;;9.25;8.45;;;;;;;;;;5069738;28;39307;-74
2023/09/10 03:13:16;;;;;;;9.10;8.30;;;;;;;;;;5068996;28;41064;-74
2023/09/10 03:15:47;;;;;;;9.43;8.63;;;;;;;;;;5070674;28;43135;-74
2023/09/10 03:18:15;;;;;;;8.93;8.13;;;;;;;;;;5069412;28;39808;-74
2023/09/10 03:20:43;;;;;;;9.07;8.20;;;;;;;;;;5068251;28;41002;-73
2023/09/10 03:23:11;;;;;;;8.93;8.00;;;;;;;;;;5069529;28;41919;-74
2023/09/10 03:25:39;;;;;;;9.10;8.20;;;;;;;;;;5071001;28;40078;-74
2023/09/10 03:28:09;;;;;;;10.73;8.27;;;;;;;;;;5069515;28;41261;-74
2023/09/10 03:30:38;;;;;;;9.18;8.27;;;;;;;;;;5055283;28;40236;-73
2023/09/10 03:33:06;;;;;;;10.07;8.30;;;;;;;;;;5071627;28;41708;-74
2023/09/10 03:35:34;;;;;;;8.75;7.80;;;;;;;;;;5068236;28;41616;-74
2023/09/10 03:38:02;;;;;;;8.82;8.02;;;;;;;;;;5070984;28;41470;-74
2023/09/10 03:40:30;;;;;;;9.05;8.15;;;;;;;;;;5068749;28;40608;-74
2023/09/10 03:42:58;;;;;;;8.93;8.13;;;;;;;;;;5069125;28;40680;-74
2023/09/10 03:45:28;;;;;;;9.50;8.57;;;;;;;;;;5069152;28;39729;-74
2023/09/10 03:47:56;;;;;;;8.32;7.63;;;;;;;;;;5070813;28;41873;-74
2023/09/10 03:50:24;;;;;;;9.35;8.45;;;;;;;;;;5068334;28;38719;-74
2023/09/10 03:52:53;;;;;;;8.57;7.72;;;;;;;;;;5070719;28;41426;-74
2023/09/10 03:55:21;;;;;;;9.48;8.10;;;;;;;;;;5068717;28;40832;-73
2023/09/10 03:57:49;;;;;;;7.90;7.25;;;;;;;;;;5069390;28;39469;-74
2023/09/10 04:00:17;;;;;;;8.30;7.60;;;;;;;;;;5069375;28;41275;-74
2023/09/10 04:02:46;;;;;;;8.40;7.70;;;;;;;;;;5068156;28;40832;-74
2023/09/10 04:05:14;;;;;;;9.18;8.27;;;;;;;;;;5070366;28;40278;-74
2023/09/10 04:07:42;;;;;;;8.75;8.05;;;;;;;;;;5070257;28;42285;-74
2023/09/10 04:10:10;;;;;;;8.77;7.97;;;;;;;;;;5068751;28;41382;-74
2023/09/10 04:12:38;;;;;;;10.10;8.20;;;;;;;;;;5066667;28;41181;-74
2023/09/10 04:15:07;;;;;;;8.30;7.50;;;;;;;;;;5070113;28;42132;-74
2023/09/10 04:17:35;;;;;;;7.88;7.18;;;;;;;;;;5071560;28;40383;-74
2023/09/10 04:20:07;;;;;;;8.57;7.88;;;;;;;;;;5065454;28;41323;-74
2023/09/10 04:22:35;;;;;;;10.27;8.27;;;;;;;;;;5067076;28;43798;-73
2023/09/10 04:25:04;;;;;;;8.45;7.65;;;;;;;;;;5067654;28;40330;-74
2023/09/10 04:27:32;;;;;;;8.40;7.65;;;;;;;;;;5064906;28;41598;-74
2023/09/10 04:30:00;;;;;;;8.00;7.30;;;;;;;;;;5069387;28;42103;-74
2023/09/10 04:32:29;;;;;;;7.90;7.20;;;;;;;;;;5067526;28;40656;-74
2023/09/10 04:34:57;;;;;;;8.60;7.75;;;;;;;;;;5068263;28;41716;-73
2023/09/10 04:37:27;;;;;;;7.93;7.20;;;;;;;;;;5067555;28;40489;-74
2023/09/10 04:39:55;;;;;;;9.18;7.65;;;;;;;;;;5069791;28;41309;-73
2023/09/10 04:42:23;;;;;;;7.93;7.13;;;;;;;;;;5067972;28;41206;-74
2023/09/10 04:44:51;;;;;;;11.57;8.07;;;;;;;;;;5069240;28;40231;-74
2023/09/10 04:47:19;;;;;;;8.02;7.22;;;;;;;;;;5068199;28;40540;-73
2023/09/10 04:49:48;;;;;;;7.63;6.93;;;;;;;;;;5068115;28;42218;-74
2023/09/10 04:52:16;;;;;;;7.68;6.95;;;;;;;;;;5066382;28;38873;-75
2023/09/10 04:54:45;;;;;;;8.52;7.45;;;;;;;;;;5068805;28;42303;-75
2023/09/10 04:57:13;;;;;;;8.25;6.85;;;;;;;;;;5068836;28;42525;-74
2023/09/10 04:59:42;;;;;;;8.15;7.35;;;;;;;;;;5065701;28;42667;-74
2023/09/10 05:02:10;;;;;;;7.50;6.80;;;;;;;;;;5067162;28;41624;-74
2023/09/10 05:04:39;;;;;;;7.72;7.03;;;;;;;;;;5057137;28;39705;-74
2023/09/10 05:07:07;;;;;;;10.27;7.30;;;;;;;;;;5066291;28;41429;-74
2023/09/10 05:09:35;;;;;;;7.55;6.82;;;;;;;;;;5065997;28;40059;-75
2023/09/10 05:12:05;;;;;;;7.50;6.80;;;;;;;;;;5068201;28;39924;-74
2023/09/10 05:14:33;;;;;;;7.60;6.88;;;;;;;;;;5065677;28;41289;-75
2023/09/10 05:17:01;;;;;;;7.07;6.38;;;;;;;;;;5066682;28;39193;-74
2023/09/10 05:19:29;;;;;;;7.60;6.85;;;;;;;;;;5066885;28;42481;-74
2023/09/10 05:21:57;;;;;;;13.15;11.88;;;;;;;;;;5058450;28;40466;-73
2023/09/10 05:24:26;;;;;;;14.13;12.82;;;;;;;;;;5064617;28;39490;-74
2023/09/10 05:26:54;;;;;;;14.60;13.30;;;;;;;;;;5066418;28;40836;-74
2023/09/10 05:29:25;;;;;;;14.02;12.57;;;;;;;;;;5068688;28;42499;-74
2023/09/10 05:31:54;;;;;;;13.68;12.38;;;;;;;;;;5066297;28;40507;-74
2023/09/10 05:34:22;;;;;;;15.18;13.77;;;;;;;;;;5067947;28;42714;-73
2023/09/10 05:36:50;;;;;;;16.10;14.52;;;;;;;;;;5068549;28;32956;-74
2023/09/10 05:39:18;;;;;;;15.55;13.90;;;;;;;;;;5066965;28;41536;-74
2023/09/10 05:41:46;;;;;;;14.50;13.10;;;;;;;;;;5067062;28;40665;-73
2023/09/10 05:44:15;;;;;;;14.73;12.50;;;;;;;;;;5067448;28;39109;-74
2023/09/10 05:46:46;;;;;;;14.27;12.73;;;;;;;;;;5066600;28;40093;-74
2023/09/10 05:49:14;;;;;;;18.73;13.77;;;;;;;;;;5064616;28;41127;-74
2023/09/10 05:51:42;;;;;;;15.70;14.23;;;;;;;;;;5068842;28;40241;-74
2023/09/10 05:54:10;;;;;;;15.77;14.27;;;;;;;;;;5066715;28;40397;-73
2023/09/10 05:56:38;;;;;;;17.77;15.32;;;;;;;;;;5067425;28;42117;-72
2023/09/10 05:59:07;;;;;;;15.73;14.23;;;;;;;;;;5067033;28;40427;-73
2023/09/10 06:01:35;;;;;;;18.42;16.13;;;;;;;;;;5068009;28;42013;-74
2023/09/10 06:04:05;;;;;;;21.77;19.48;;;;;;;;;;5066595;28;39765;-72
2023/09/10 06:06:33;;;;;;;21.50;19.35;;;;;;;;;;5067483;28;41888;-72
2023/09/10 06:09:01;;;;;;;25.25;22.75;;;;;;;;;;5067376;28;42249;-73
2023/09/10 06:11:30;;;;;;;33.78;25.92;;;;;;;;;;5066791;28;40956;-73
2023/09/10 06:13:58;;;;;;;27.90;24.67;;;;;;;;;;5066591;28;41299;-74
2023/09/10 06:16:26;;;;;;;29.50;26.40;;;;;;;;;;5065202;28;40586;-72
2023/09/10 06:18:55;;;;;;;29.73;26.92;;;;;;;;;;5067147;28;39085;-74
2023/09/10 06:21:24;;;;;;;34.65;31.00;;;;;;;;;;5063546;28;40628;-73
2023/09/10 06:23:52;;;;;;;31.80;28.75;;;;;;;;;;5054140;28;40178;-73
2023/09/10 06:26:20;;;;;;;31.40;28.00;;;;;;;;;;5066767;28;40442;-73
2023/09/10 06:28:49;;;;;;;33.80;30.40;;;;;;;;;;5066685;28;41637;-73
2023/09/10 06:31:17;;;;;;;34.45;30.92;;;;;;;;;;5067897;28;41608;-73
2023/09/10 06:33:45;;;;;;;34.08;30.65;;;;;;;;;;5063733;28;40765;-72
2023/09/10 06:36:13;;;;;;;34.10;30.38;;;;;;;;;;5068121;28;41476;-72
2023/09/10 06:38:47;;;;;;;38.67;30.98;;;;;;;;;;5067104;28;41444;-75
2023/09/10 06:41:16;;;;;;;37.15;33.22;;;;;;;;;;5068270;28;41248;-74
2023/09/10 06:43:44;;;;;;;37.28;33.63;;;;;;;;;;5068181;28;40791;-74
2023/09/10 06:46:16;;;;;;;38.55;34.45;;;;;;;;;;5065736;28;39519;-74
2023/09/10 06:48:44;;;;;;;40.85;33.75;;;;;;;;;;5062863;28;43170;-75
2023/09/10 06:51:12;;;;;;;37.47;33.58;;;;;;;;;;5067924;28;40347;-73
2023/09/10 06:53:40;;;;;;;40.00;35.05;;;;;;;;;;5067761;28;41832;-74
2023/09/10 06:56:09;;;;;;;34.53;30.60;;;;;;;;;;5067561;28;42013;-74
2023/09/10 06:58:37;;;;;;;29.00;26.05;;;;;;;;;;5064760;28;39185;-75
2023/09/10 07:01:07;;;;;;;32.80;27.98;;;;;;;;;;5067135;28;42458;-76
2023/09/10 07:03:35;;;;;;;29.85;26.75;;;;;;;;;;5056594;28;42797;-76
2023/09/10 07:06:04;;;;;;;26.30;23.40;;;;;;;;;;5066264;28;41491;-76
2023/09/10 07:08:32;;;;;;;29.88;23.92;;;;;;;;;;5065022;28;42500;-76
2023/09/10 07:11:00;;;;;;;23.48;21.08;;;;;;;;;;5065700;28;40594;-76
2023/09/10 07:13:30;;;;;;;24.55;21.80;;;;;;;;;;5062811;28;40468;-76
2023/09/10 07:15:58;;;;;;;21.80;19.50;;;;;;;;;;5065766;28;42610;-76
2023/09/10 07:18:32;;;;;;;20.63;18.13;;;;;;;;;;5064792;28;39809;-76
2023/09/10 07:21:00;;;;;;;20.73;18.17;;;;;;;;;;5062745;28;41505;-76
2023/09/10 07:23:28;;;;;;;18.90;16.45;;;;;;;;;;5069145;28;42259;-76
2023/09/10 07:25:57;;;;;;;18.50;16.52;;;;;;;;;;5071354;28;41149;-76
2023/09/10 07:28:25;;;;;;;20.25;16.52;;;;;;;;;;5070465;28;43660;-77
2023/09/10 07:30:54;;;;;;;18.48;15.18;;;;;;;;;;5070640;28;40736;-76
2023/09/10 07:33:22;;;;;;;15.48;13.82;;;;;;;;;;5069713;28;42160;-76
2023/09/10 07:35:50;;;;;;;15.43;13.90;;;;;;;;;;5071457;28;41805;-76
2023/09/10 07:38:18;;;;;;;16.13;13.07;;;;;;;;;;5069317;28;38975;-76
2023/09/10 07:40:47;;;;;;;14.02;12.63;;;;;;;;;;5068916;28;42426;-76
2023/09/10 07:43:15;;;;;;;13.68;12.27;;;;;;;;;;5070198;28;43278;-76
2023/09/10 07:45:44;;;;;;;15.73;12.93;;;;;;;;;;5070806;28;40753;-76
2023/09/10 07:48:14;;;;;;;15.52;12.13;;;;;;;;;;5069720;28;41934;-76
2023/09/10 07:50:43;;;;;;;13.43;12.02;;;;;;;;;;5069580;28;43298;-76
2023/09/10 07:53:11;;;;;;;13.63;12.25;;;;;;;;;;5070450;28;41670;-76
2023/09/10 07:55:39;;;;;;;11.85;10.75;;;;;;;;;;5069373;28;41999;-76
2023/09/10 07:58:07;;;;;;;12.05;10.85;;;;;;;;;;5070378;28;40432;-76
2023/09/10 08:00:36;;;;;;;10.90;9.30;;;;;;;;;;5069435;28;41898;-76
2023/09/10 08:03:06;;;;;;;12.93;9.88;;;;;;;;;;5070235;28;41880;-76
2023/09/10 08:05:35;;;;;;;11.45;10.35;;;;;;;;;;5069762;28;40494;-76
2023/09/10 08:08:04;;;;;;;10.52;9.43;;;;;;;;;;5070862;28;42375;-76
2023/09/10 08:10:32;;;;;;;10.70;9.70;;;;;;;;;;5068650;28;40600;-76
2023/09/10 08:13:00;;;;;;;10.15;9.15;;;;;;;;;;5069603;28;41165;-76
2023/09/10 08:15:28;;;;;;;12.63;9.98;;;;;;;;;;5069304;28;42103;-76
2023/09/10 08:17:56;;;;;;;9.93;8.93;;;;;;;;;;5070467;28;39899;-76
2023/09/10 08:20:24;;;;;;;10.57;9.45;;;;;;;;;;5068981;28;42564;-76
2023/09/10 08:22:54;;;;;;;10.48;9.48;;;;;;;;;;5067994;28;41378;-76
2023/09/10 08:25:22;;;;;;;9.48;8.40;;;;;;;;;;5067786;28;39161;-76
2023/09/10 08:27:50;;;;;;;11.52;10.43;;;;;;;;;;5070060;28;42535;-76
2023/09/10 08:30:18;;;;;;;9.43;8.30;;;;;;;;;;5069315;28;41969;-76
2023/09/10 08:32:47;;;;;;;11.00;8.88;;;;;;;;;;5070159;28;41860;-76
2023/09/10 08:35:17;;;;;;;9.00;8.13;;;;;;;;;;5069412;28;42132;-76
2023/09/10 08:37:45;;;;;;;9.25;8.45;;;;;;;;;;5068346;28;39913;-76
2023/09/10 08:40:15;;;;;;;10.15;8.55;;;;;;;;;;5069034;28;42680;-76
2023/09/10 08:42:45;;;;;;;9.10;8.20;;;;;;;;;;5069206;28;42315;-76
2023/09/10 08:45:14;;;;;;;8.43;7.72;;;;;;;;;;5068779;28;40772;-76
2023/09/10 08:47:42;;;;;;;9.60;8.60;;;;;;;;;;5069646;28;42323;-76
2023/09/10 08:50:11;;;;;;;9.32;8.43;;;;;;;;;;5068943;28;42612;-76
2023/09/10 08:52:39;;;;;;;8.82;8.02;;;;;;;;;;5069393;28;40121;-76
2023/09/10 08:55:07;;;;;;;12.35;11.15;;;;;;;;;;5069265;28;42054;-76
2023/09/10 08:57:38;;;;;;;8.65;7.88;;;;;;;;;;5069124;28;40832;-76
2023/09/10 09:00:07;;;;;;;8.35;7.65;;;;;;;;;;5068696;28;41073;-76
2023/09/10 09:02:35;;;;;;;8.65;7.75;;;;;;;;;;5068667;28;42556;-76
2023/09/10 09:05:03;;;;;;;8.70;7.90;;;;;;;;;;5069181;28;40839;-76
2023/09/10 09:07:32;;;;;;;8.48;7.72;;;;;;;;;;5069365;28;41621;-76
2023/09/10 09:10:00;;;;;;;7.95;7.25;;;;;;;;;;5069129;28;42108;-76
2023/09/10 09:12:28;;;;;;;9.40;7.90;;;;;;;;;;5068427;28;41485;-76
2023/09/10 09:14:57;;;;;;;8.93;8.07;;;;;;;;;;5069868;28;41313;-76
2023/09/10 09:17:25;;;;;;;8.23;7.53;;;;;;;;;;5068860;28;40628;-76
2023/09/10 09:19:53;;;;;;;8.35;7.45;;;;;;;;;;5068288;28;41534;-76
2023/09/10 09:22:21;;;;;;;8.05;7.35;;;;;;;;;;5049616;28;42752;-76
2023/09/10 09:24:49;;;;;;;8.57;7.88;;;;;;;;;;5063334;28;41336;-76
2023/09/10 09:27:17;;;;;;;8.32;7.57;;;;;;;;;;5068379;28;41587;-76
2023/09/10 09:29:45;;;;;;;7.97;7.28;;;;;;;;;;5068865;28;42693;-76
2023/09/10 09:32:16;;;;;;;8.95;8.10;;;;;;;;;;5068982;28;20229;-76
2023/09/10 09:34:44;;;;;;;8.35;7.65;;;;;;;;;;5067631;28;41357;-76
2023/09/10 09:37:18;;;;;;;8.23;7.43;;;;;;;;;;5069134;28;41608;-76
2023/09/10 09:39:46;;;;;;;8.27;7.47;;;;;;;;;;5065593;28;41447;-76
2023/09/10 09:42:14;;;;;;;9.15;8.35;;;;;;;;;;5067621;28;43739;-76
2023/09/10 09:44:44;;;;;;;8.88;8.10;;;;;;;;;;5067315;28;40076;-76
2023/09/10 09:47:12;;;;;;;10.05;9.15;;;;;;;;;;5068080;28;42505;-76
2023/09/10 09:49:45;;;;;;;9.82;9.00;;;;;;;;;;5068275;28;42043;-76
2023/09/10 09:52:13;;;;;;;10.40;9.50;;;;;;;;;;5067390;28;41131;-76
2023/09/10 09:54:41;;;;;;;12.23;11.23;;;;;;;;;;5066010;28;42302;-76
2023/09/10 09:57:09;;;;;;;11.93;10.82;;;;;;;;;;5068854;28;41627;-76
2023/09/10 09:59:37;;;;;;;13.10;11.90;;;;;;;;;;5068089;28;42314;-76
2023/09/10 10:02:05;;;;;;;13.32;12.13;;;;;;;;;;5067749;28;41462;-76
2023/09/10 10:04:33;;;;;;;14.07;12.88;;;;;;;;;;5066967;28;40343;-76
2023/09/10 10:07:03;;;;;;;14.25;12.95;;;;;;;;;;5068267;28;41309;-76
2023/09/10 10:09:50;;;;;;;14.25;12.85;;;;;;;;;;5065964;28;40705;-76
2023/09/10 10:12:18;;;;;;;14.40;13.10;;;;;;;;;;5068123;28;40560;-76
2023/09/10 10:14:46;;;;;;;14.85;13.55;;;;;;;;;;5067617;28;41767;-76
2023/09/10 10:17:14;;;;;;;15.15;13.85;;;;;;;;;;5067639;28;43121;-76
2023/09/10 10:19:42;;;;;;;14.15;12.82;;;;;;;;;;5068591;28;41134;-76
2023/09/10 10:22:11;;;;;;;13.90;12.63;;;;;;;;;;5067419;28;42734;-76
2023/09/10 10:24:39;;;;;;;14.00;12.77;;;;;;;;;;5067430;28;41056;-76
2023/09/10 10:27:07;;;;;;;12.75;11.57;;;;;;;;;;5062414;28;42589;-76
2023/09/10 10:29:35;;;;;;;11.20;10.20;;;;;;;;;;5059122;28;41916;-76
2023/09/10 10:32:05;;;;;;;11.20;9.75;;;;;;;;;;5063818;28;40949;-74
2023/09/10 10:34:35;;;;;;;12.43;11.23;;;;;;;;;;5061230;28;42370;-76
2023/09/10 10:37:04;;;;;;;12.77;11.57;;;;;;;;;;5064159;28;42703;-75
2023/09/10 10:39:36;;;;;;;15.40;11.48;;;;;;;;;;5066833;28;40218;-74
2023/09/10 10:42:05;;;;;;;16.23;12.05;;;;;;;;;;5056327;28;42239;-75
2023/09/10 10:44:34;;;;;;;17.63;12.88;;;;;;;;;;5051039;28;41127;-75
2023/09/10 10:47:03;;;;;;;22.65;12.73;;;;;;;;;;5054441;28;41883;-75
2023/09/10 10:49:31;;;;;;;18.23;13.38;;;;;;;;;;5058570;28;41823;-75
2023/09/10 10:52:00;;;;;;;14.18;12.43;;;;;;;;;;5065627;28;40232;-75
2023/09/10 10:54:28;;;;;;;17.25;12.95;;;;;;;;;;5067710;28;41825;-75
2023/09/10 10:56:58;;;;;;;17.65;13.50;;;;;;;;;;5070279;28;41726;-75
2023/09/10 10:59:26;;;;;;;18.75;12.98;;;;;;;;;;5062181;28;41057;-75
2023/09/10 11:02:24;;;;;;;14.52;12.45;;;;;;;;;;5069048;28;42635;-75
2023/09/10 11:04:54;;;;;;;20.45;13.80;;;;;;;;;;5023836;28;42770;-75
2023/09/10 11:07:22;;;;;;;17.80;12.70;;;;;;;;;;5052264;28;41824;-75
2023/09/10 11:09:51;;;;;;;17.63;13.02;;;;;;;;;;5071476;28;41744;-75
2023/09/10 11:12:20;;;;;;;14.80;12.40;;;;;;;;;;5070502;28;40632;-75
2023/09/10 11:15:04;;;;;;;17.95;12.82;;;;;;;;;;5071257;28;42609;-75
2023/09/10 11:17:33;;;;;;;16.88;12.50;;;;;;;;;;5071356;28;42246;-75
2023/09/10 11:20:03;;;;;;;15.40;13.40;;;;;;;;;;5069826;28;39112;-75
2023/09/10 11:22:46;;;;;;;19.85;14.05;;;;;;;;;;5071332;28;43224;-76
2023/09/10 11:25:16;;;;;;;17.00;12.95;;;;;;;;;;5070705;28;41971;-76
2023/09/10 11:27:46;;;;;;;22.33;13.77;;;;;;;;;;5070795;28;40372;-76
2023/09/10 11:30:15;;;;;;;17.77;13.95;;;;;;;;;;5071255;28;42348;-76
2023/09/10 11:32:43;;;;;;;14.60;13.10;;;;;;;;;;5069406;28;39945;-76
2023/09/10 11:35:27;;;;;;;19.73;13.30;;;;;;;;;;5069689;28;41968;-75
2023/09/10 11:37:55;;;;;;;15.90;14.25;;;;;;;;;;5057944;28;42087;-76
2023/09/10 11:40:25;;;;;;;15.80;13.55;;;;;;;;;;5066824;28;40986;-75
2023/09/10 11:42:55;;;;;;;18.75;12.95;;;;;;;;;;5059447;28;41683;-76
2023/09/10 11:45:23;;;;;;;18.75;13.10;;;;;;;;;;5071284;28;43166;-75
2023/09/10 11:47:51;;;;;;;17.33;13.05;;;;;;;;;;5070720;28;40711;-75
2023/09/10 11:50:20;;;;;;;20.77;13.25;;;;;;;;;;5071726;28;41969;-75
2023/09/10 11:52:48;;;;;;;16.10;12.52;;;;;;;;;;5070988;28;41572;-75
2023/09/10 11:55:16;;;;;;;19.35;13.95;;;;;;;;;;5070876;28;41471;-75
2023/09/10 11:57:44;;;;;;;14.30;12.30;;;;;;;;;;5070522;28;41730;-75
2023/09/10 12:00:16;;;;;;;15.68;13.55;;;;;;;;;;5071022;28;42331;-75
2023/09/10 12:02:44;;;;;;;14.10;12.60;;;;;;;;;;5070326;28;42179;-75
2023/09/10 12:05:12;;;;;;;18.48;13.55;;;;;;;;;;5067963;28;41929;-74
2023/09/10 12:07:43;;;;;;;19.02;13.70;;;;;;;;;;5059233;28;40000;-75
2023/09/10 12:10:12;;;;;;;16.50;13.07;;;;;;;;;;5071088;28;40945;-76
2023/09/10 12:12:40;;;;;;;17.98;13.23;;;;;;;;;;5063354;28;40051;-76
2023/09/10 12:15:08;;;;;;;18.52;13.10;;;;;;;;;;5069696;28;41894;-76
2023/09/10 12:17:37;;;;;;;13.98;12.35;;;;;;;;;;5069925;28;41368;-76
2023/09/10 12:20:06;;;;;;;20.15;12.82;;;;;;;;;;5070296;28;40398;-76
2023/09/10 12:22:34;;;;;;;21.58;13.85;;;;;;;;;;5068860;28;42203;-76
2023/09/10 12:25:02;;;;;;;26.25;13.35;;;;;;;;;;5067784;28;41967;-76
2023/09/10 12:27:30;;;;;;;15.43;11.57;;;;;;;;;;5070300;28;41467;-76
2023/09/10 12:29:58;;;;;;;17.65;11.75;;;;;;;;;;5070067;28;41630;-76
2023/09/10 12:32:26;;;;;;;11.52;10.48;;;;;;;;;;5070013;28;42791;-76
2023/09/10 12:34:56;;;;;;;21.10;11.77;;;;;;;;;;5069251;28;41662;-77
2023/09/10 12:37:24;;;;;;;18.13;11.70;;;;;;;;;;5057542;28;41985;-76
2023/09/10 12:39:53;;;;;;;15.60;11.07;;;;;;;;;;5069271;28;41071;-76
2023/09/10 12:42:21;;;;;;;11.77;10.20;;;;;;;;;;5069127;28;41481;-76
2023/09/10 12:44:49;;;;;;;13.75;11.10;;;;;;;;;;5068319;28;41763;-76
2023/09/10 12:47:16;;;;;;;17.02;10.25;;;;;;;;;;5068962;28;41542;-76
2023/09/10 12:49:45;;;;;;;16.63;10.15;;;;;;;;;;5069027;28;41854;-76
2023/09/10 12:52:14;;;;;;;11.38;10.27;;;;;;;;;;5069436;28;42278;-76
2023/09/10 12:54:42;;;;;;;11.82;10.30;;;;;;;;;;5063611;28;40399;-76
2023/09/10 12:57:10;;;;;;;10.35;9.13;;;;;;;;;;5065397;28;42119;-76
2023/09/10 12:59:38;;;;;;;10.15;8.82;;;;;;;;;;5067317;28;40445;-74
2023/09/10 13:02:08;;;;;;;11.82;9.48;;;;;;;;;;5059844;28;41100;-74
2023/09/10 13:04:40;;;;;;;15.48;9.88;;;;;;;;;;5059146;28;42022;-74
2023/09/10 13:07:10;;;;;;;12.52;9.00;;;;;;;;;;5060949;28;41345;-74
2023/09/10 13:09:40;;;;;;;13.52;9.15;;;;;;;;;;5059398;28;41791;-73
2023/09/10 13:12:38;;;;;;;15.25;10.07;;;;;;;;;;5061199;28;40767;-73
2023/09/10 13:15:07;;;;;;;16.63;9.38;;;;;;;;;;5060949;28;41020;-74
2023/09/10 13:17:36;;;;;;;11.75;9.63;;;;;;;;;;5059243;28;40264;-74
2023/09/10 13:20:05;;;;;;;14.18;9.43;;;;;;;;;;5062470;28;40448;-73
2023/09/10 13:22:34;;;;;;;14.77;9.43;;;;;;;;;;5063810;28;41678;-73
2023/09/10 13:25:04;;;;;;;12.18;9.60;;;;;;;;;;5063167;28;42122;-73
2023/09/10 13:27:32;;;;;;;11.23;9.02;;;;;;;;;;5063117;28;40361;-73
2023/09/10 13:30:01;;;;;;;11.93;8.98;;;;;;;;;;5062218;28;41093;-72
2023/09/10 13:32:33;;;;;;;11.15;8.73;;;;;;;;;;5057659;28;42802;-72
2023/09/10 13:35:04;;;;;;;10.48;8.70;;;;;;;;;;5059038;28;38775;-73
2023/09/10 13:37:34;;;;;;;11.77;8.80;;;;;;;;;;5059962;28;41627;-72
2023/09/10 13:40:04;;;;;;;10.68;8.60;;;;;;;;;;5063777;28;40532;-74
2023/09/10 13:42:33;;;;;;;11.73;8.25;;;;;;;;;;5078947;28;41269;-74
2023/09/10 13:45:01;;;;;;;8.98;8.15;;;;;;;;;;5064172;28;41855;-74
2023/09/10 13:47:30;;;;;;;8.80;7.90;;;;;;;;;;5063668;28;40118;-73
2023/09/10 13:49:58;;;;;;;9.80;8.10;;;;;;;;;;5068936;28;40973;-74
2023/09/10 13:52:26;;;;;;;9.02;8.13;;;;;;;;;;5068618;28;42003;-73
2023/09/10 13:54:54;;;;;;;8.57;7.70;;;;;;;;;;5067887;28;41324;-73
2023/09/10 13:57:23;;;;;;;8.75;7.88;;;;;;;;;;5068412;28;41590;-73
2023/09/10 13:59:51;;;;;;;9.98;7.68;;;;;;;;;;5072179;28;41591;-73
2023/09/10 14:02:19;;;;;;;8.88;7.97;;;;;;;;;;5056991;28;40430;-73
2023/09/10 14:04:48;;;;;;;8.40;7.47;;;;;;;;;;5059846;28;43150;-74
2023/09/10 14:07:17;;;;;;;8.57;7.72;;;;;;;;;;5060666;28;41347;-74
2023/09/10 14:09:45;;;;;;;9.38;7.32;;;;;;;;;;5054048;28;41386;-74
2023/09/10 14:12:13;;;;;;;8.45;7.60;;;;;;;;;;5057351;28;43093;-74
2023/09/10 14:14:43;;;;;;;9.23;7.57;;;;;;;;;;5061405;28;40327;-74
2023/09/10 14:17:10;;;;;;;9.32;7.30;;;;;;;;;;5063512;28;41197;-74
2023/09/10 14:19:38;;;;;;;9.85;7.63;;;;;;;;;;5064458;28;40974;-74
2023/09/10 14:22:07;;;;;;;8.43;7.40;;;;;;;;;;5062363;28;40015;-74
2023/09/10 14:24:35;;;;;;;7.70;7.00;;;;;;;;;;5062087;28;42893;-74
2023/09/10 14:27:04;;;;;;;9.70;6.97;;;;;;;;;;5059866;28;40866;-74
2023/09/10 14:29:32;;;;;;;7.97;7.07;;;;;;;;;;5062180;28;42617;-75
2023/09/10 14:32:01;;;;;;;7.50;6.65;;;;;;;;;;5067385;28;41910;-74
2023/09/10 14:34:29;;;;;;;14.45;7.65;;;;;;;;;;5066141;28;40370;-74
2023/09/10 14:36:57;;;;;;;8.40;7.50;;;;;;;;;;5066827;28;42613;-74
2023/09/10 14:39:25;;;;;;;9.65;6.82;;;;;;;;;;5065254;28;43102;-74
2023/09/10 14:41:53;;;;;;;8.95;7.07;;;;;;;;;;5067206;28;40018;-74